Time;durP1;ratioP1;P1;durP2;ratioP2;P2;SDS_P1;SDS_P2;PMS_P1;PMS_P2;Temp;Humidity;BMP_temperature;BMP_pressure;BME280_temperature;BME280_humidity;BME280_pressure;Samples;Min_cycle;Max_cycle;Signal;HPM_P1;HPM_P2
2024/02/21 00:01:31;;;;;;;4.43;2.10;;;;;;;-145.69;67.14;52386.97;5114339;28;20205;-79
2024/02/21 00:03:57;;;;;;;6.90;2.10;;;;;;;-145.69;67.46;52377.06;5114160;28;20197;-79
2024/02/21 00:06:23;;;;;;;7.37;2.77;;;;;;;-145.69;67.12;52367.16;5113964;28;20205;-80
2024/02/21 00:08:51;;;;;;;16.23;2.80;;;;;;;-145.69;66.93;52388.94;5114419;28;20677;-80
2024/02/21 00:11:18;;;;;;;6.37;2.57;;;;;;;-145.69;67.28;52383.00;5114146;28;20221;-79
2024/02/21 00:13:44;;;;;;;8.87;2.10;;;;;;;-145.69;67.53;52392.91;5113952;28;20198;-80
2024/02/21 00:16:11;;;;;;;10.20;2.53;;;;;;;-145.69;67.30;52373.09;5113964;28;20208;-78
2024/02/21 00:18:38;;;;;;;7.47;2.27;;;;;;;-145.69;67.48;52412.69;5113514;28;20579;-78
2024/02/21 00:21:04;;;;;;;5.60;2.13;;;;;;;-145.69;67.39;52398.84;5114050;28;20201;-79
2024/02/21 00:23:31;;;;;;;12.33;2.93;;;;;;;-145.69;67.25;52406.75;5113622;28;20204;-78
2024/02/21 00:25:59;;;;;;;5.73;2.37;;;;;;;-145.69;67.47;52359.22;5113842;28;20198;-79
2024/02/21 00:28:25;;;;;;;6.63;2.63;;;;;;;-145.69;67.14;52349.31;5113707;28;20212;-79
2024/02/21 00:30:52;;;;;;;6.47;2.50;;;;;;;-145.69;66.46;52351.31;5113750;28;20229;-79
2024/02/21 00:33:19;;;;;;;7.43;2.53;;;;;;;-145.69;66.33;52384.97;5113736;28;20193;-79
2024/02/21 00:35:46;;;;;;;11.80;2.53;;;;;;;-145.69;65.90;52373.09;5113079;28;20548;-78
2024/02/21 00:38:13;;;;;;;12.47;2.60;;;;;;;-145.69;65.63;52349.31;5113588;27;20200;-79
2024/02/21 00:40:39;;;;;;;10.87;2.30;;;;;;;-145.69;65.46;52371.13;5114072;28;20204;-78
2024/02/21 00:43:07;;;;;;;7.57;2.43;;;;;;;-145.69;65.93;52361.22;5113498;28;20208;-79
2024/02/21 00:45:34;;;;;;;9.67;2.30;;;;;;;-145.69;65.41;52349.31;5113080;28;20190;-78
2024/02/21 00:48:00;;;;;;;11.97;2.03;;;;;;;-145.69;65.73;52392.91;5113679;28;20651;-79
2024/02/21 00:50:27;;;;;;;7.50;2.17;;;;;;;-145.69;65.85;52373.09;5113329;28;20233;-79
2024/02/21 00:52:52;;;;;;;7.73;2.60;;;;;;;-145.69;66.11;52365.16;5112932;28;20198;-79
2024/02/21 00:55:19;;;;;;;16.70;2.90;;;;;;;-145.69;66.00;52379.03;5113488;28;20197;-78
2024/02/21 00:57:46;;;;;;;10.43;2.30;;;;;;;-145.69;65.98;52349.31;5113447;28;20655;-80
2024/02/21 01:00:15;;;;;;;16.37;3.00;;;;;;;-145.69;65.87;52388.94;5113538;28;20201;-79
2024/02/21 01:02:41;;;;;;;6.33;2.17;;;;;;;-145.69;66.03;52404.78;5111933;28;20200;-79
2024/02/21 01:05:08;;;;;;;13.07;3.10;;;;;;;-145.69;65.83;52365.16;5113504;28;20205;-80
2024/02/21 01:07:34;;;;;;;6.23;2.67;;;;;;;-145.69;66.17;52375.06;5113305;28;20834;-80
2024/02/21 01:10:01;;;;;;;9.13;2.43;;;;;;;-145.69;65.90;52388.94;5112658;28;20228;-80
2024/02/21 01:12:27;;;;;;;12.87;2.90;;;;;;;-145.69;65.36;52337.44;5113409;28;20200;-80
2024/02/21 01:14:54;;;;;;;8.50;2.87;;;;;;;-145.69;65.31;52384.97;5112121;28;20578;-79
2024/02/21 01:17:22;;;;;;;13.63;2.60;;;;;;;-145.69;65.53;52361.22;5112403;28;20251;-78
2024/02/21 01:19:48;;;;;;;8.03;2.17;;;;;;;-145.69;65.29;52355.28;5112513;28;20590;-78
2024/02/21 01:22:15;;;;;;;6.13;2.07;;;;;;;-145.69;64.84;52361.22;5113000;28;20259;-79
2024/02/21 01:24:42;;;;;;;6.73;1.97;;;;;;;-145.69;65.03;52353.28;5112570;28;20200;-79
2024/02/21 01:27:08;;;;;;;5.27;2.27;;;;;;;-145.69;66.36;52361.22;5113036;28;20198;-79
2024/02/21 01:29:35;;;;;;;8.07;2.53;;;;;;;-145.69;66.20;52359.22;5112587;28;20213;-79
2024/02/21 01:32:01;;;;;;;5.40;2.30;;;;;;;-145.69;65.96;52384.97;5112619;28;20232;-80
2024/02/21 01:34:29;;;;;;;12.03;1.90;;;;;;;-145.69;66.44;52353.28;5112677;28;20194;-79
2024/02/21 01:36:55;;;;;;;8.33;2.57;;;;;;;-145.69;66.75;52388.94;5112705;28;20197;-80
2024/02/21 01:39:22;;;;;;;4.70;2.40;;;;;;;-145.69;66.23;52359.22;5112604;28;20634;-79
2024/02/21 01:41:48;;;;;;;5.07;2.20;;;;;;;-145.69;66.38;52400.81;5113055;28;20201;-80
2024/02/21 01:44:14;;;;;;;7.77;2.23;;;;;;;-145.69;66.32;52367.16;5112540;28;20582;-80
2024/02/21 01:46:41;;;;;;;7.83;2.30;;;;;;;-145.69;66.07;52367.16;5112761;28;20205;-79
2024/02/21 01:49:08;;;;;;;17.47;2.70;;;;;;;-145.69;65.87;52345.38;5112267;28;20753;-79
2024/02/21 01:51:36;;;;;;;7.13;2.03;;;;;;;-145.69;66.01;52379.03;5112684;28;20229;-79
2024/02/21 01:54:02;;;;;;;8.70;2.37;;;;;;;-145.69;65.78;52400.81;5112726;28;20201;-78
2024/02/21 01:56:29;;;;;;;7.10;2.23;;;;;;;-145.69;65.78;52375.06;5112605;28;20197;-80
2024/02/21 01:58:56;;;;;;;8.30;2.20;;;;;;;-145.69;66.06;52363.19;5112747;28;20197;-81
2024/02/21 02:01:22;;;;;;;9.90;2.53;;;;;;;-145.69;65.56;52371.13;5112823;28;20197;-78
2024/02/21 02:03:49;;;;;;;5.87;2.17;;;;;;;-145.69;65.38;52381.00;5113562;28;20667;-80
2024/02/21 02:06:16;;;;;;;5.10;2.33;;;;;;;-145.69;64.96;52353.28;5116435;28;20201;-81
2024/02/21 02:08:44;;;;;;;9.13;2.53;;;;;;;-145.69;65.09;52375.06;5116688;28;20208;-79
2024/02/21 02:11:11;;;;;;;8.37;2.00;;;;;;;-145.69;64.82;52369.13;5116733;27;20225;-80
2024/02/21 02:13:38;;;;;;;8.27;2.17;;;;;;;-145.69;65.12;52361.22;5116014;27;20202;-79
2024/02/21 02:16:05;;;;;;;8.10;2.00;;;;;;;-145.69;65.09;52337.44;5115000;28;20206;-80
2024/02/21 02:18:31;;;;;;;7.67;2.20;;;;;;;-145.69;65.47;52359.22;5115972;28;20197;-80
2024/02/21 02:20:58;;;;;;;8.40;2.20;;;;;;;-145.69;65.09;52349.31;5116246;28;20197;-79
2024/02/21 02:23:26;;;;;;;7.37;2.43;;;;;;;-145.69;66.18;52375.06;5115498;28;20438;-80
2024/02/21 02:25:53;;;;;;;5.40;2.30;;;;;;;-145.69;65.99;52363.19;5095617;28;20202;-82
2024/02/21 02:28:20;;;;;;;5.63;1.83;;;;;;;-145.69;65.80;52369.13;5095868;28;20206;-81
2024/02/21 02:30:47;;;;;;;10.13;2.50;;;;;;;-145.69;66.28;52365.16;5095632;28;20218;-81
2024/02/21 02:33:13;;;;;;;6.13;2.17;;;;;;;-145.69;66.11;52392.91;5115820;28;20712;-80
2024/02/21 02:35:40;;;;;;;6.23;2.10;;;;;;;-145.69;65.62;52369.13;5116277;28;20226;-80
2024/02/21 02:38:07;;;;;;;7.93;2.43;;;;;;;-145.69;66.16;52381.00;5116252;27;20205;-79
2024/02/21 02:40:35;;;;;;;8.07;2.30;;;;;;;-145.69;66.14;52381.00;5116043;28;20197;-80
2024/02/21 02:43:03;;;;;;;8.43;2.47;;;;;;;-145.69;66.18;52349.31;5115803;27;20201;-81
2024/02/21 02:45:29;;;;;;;7.60;2.50;;;;;;;-145.69;65.91;52388.94;5115789;28;20198;-79
2024/02/21 02:47:56;;;;;;;10.60;2.50;;;;;;;-145.69;66.03;52361.22;5116262;28;20197;-80
2024/02/21 02:50:23;;;;;;;8.63;2.17;;;;;;;-145.69;65.81;52357.25;5115384;28;20275;-79
2024/02/21 02:52:50;;;;;;;8.50;2.37;;;;;;;-145.69;65.49;52365.16;5115626;27;20198;-80
2024/02/21 02:55:17;;;;;;;7.37;1.87;;;;;;;-145.69;65.78;52357.25;5115783;28;20201;-80
2024/02/21 02:57:45;;;;;;;9.73;2.60;;;;;;;-145.69;65.55;52392.91;5115778;28;20280;-79
2024/02/21 03:00:12;;;;;;;5.57;1.90;;;;;;;-145.69;65.36;52361.22;5114943;28;20683;-79
2024/02/21 03:02:40;;;;;;;3.40;1.63;;;;;;;-145.69;65.43;52384.97;5115674;28;20644;-79
2024/02/21 03:05:14;;;;;;;10.10;2.43;;;;;;;-145.69;64.77;52375.06;5115454;28;20197;-79
2024/02/21 03:07:41;;;;;;;9.57;2.73;;;;;;;-145.69;65.29;52383.00;5115293;28;20288;-79
2024/02/21 03:10:08;;;;;;;10.30;2.10;;;;;;;-145.69;65.30;52365.16;5115428;28;20258;-80
2024/02/21 03:12:34;;;;;;;8.63;2.27;;;;;;;-145.69;65.38;52341.41;5115561;28;20228;-80
2024/02/21 03:15:02;;;;;;;6.33;2.00;;;;;;;-145.69;64.96;52394.88;5114515;28;20200;-80
2024/02/21 03:17:28;;;;;;;10.23;2.10;;;;;;;-145.69;65.21;52371.13;5114997;28;20201;-80
2024/02/21 03:19:55;;;;;;;8.37;2.40;;;;;;;-145.69;64.59;52347.34;5115003;28;20568;-80
2024/02/21 03:22:22;;;;;;;7.37;2.00;;;;;;;-145.69;64.94;52365.16;5115299;27;20309;-81
2024/02/21 03:24:48;;;;;;;7.00;2.20;;;;;;;-145.69;64.57;52357.25;5115261;28;20675;-79
2024/02/21 03:27:15;;;;;;;9.73;2.70;;;;;;;-145.69;64.48;52398.84;5115292;27;20197;-80
2024/02/21 03:29:41;;;;;;;9.67;2.03;;;;;;;-145.69;64.08;52359.22;5115033;28;20599;-80
2024/02/21 03:32:09;;;;;;;9.97;2.00;;;;;;;-145.69;63.64;52388.94;5112208;27;20244;-79
2024/02/21 03:34:35;;;;;;;5.43;2.20;;;;;;;-145.69;63.84;52345.38;5114647;28;20533;-78
2024/02/21 03:37:02;;;;;;;4.10;1.73;;;;;;;-145.69;63.29;52351.31;5114903;28;20534;-78
2024/02/21 03:39:32;;;;;;;8.17;1.73;;;;;;;-145.69;62.51;52371.13;5114406;28;20660;-80
2024/02/21 03:42:00;;;;;;;8.10;1.83;;;;;;;-145.69;62.45;52365.16;5115150;28;20193;-78
2024/02/21 03:44:26;;;;;;;10.63;2.13;;;;;;;-145.69;62.44;52359.22;5114491;28;20582;-81
2024/02/21 03:46:53;;;;;;;12.30;2.10;;;;;;;-145.69;62.55;52367.16;5114914;28;20197;-79
2024/02/21 03:49:21;;;;;;;5.17;2.07;;;;;;;-145.69;62.99;52373.09;5114533;28;20282;-78
2024/02/21 03:51:47;;;;;;;5.00;1.97;;;;;;;-145.69;63.14;52337.44;5114662;28;20233;-80
2024/02/21 03:54:14;;;;;;;4.77;1.50;;;;;;;-145.69;62.87;52353.28;5114031;28;20194;-80
2024/02/21 03:56:40;;;;;;;6.33;1.80;;;;;;;-145.69;62.59;52379.03;5114712;28;20202;-80
2024/02/21 03:59:07;;;;;;;4.17;1.80;;;;;;;-145.69;62.74;52392.91;5114219;28;20202;-81
2024/02/21 04:01:34;;;;;;;8.00;2.00;;;;;;;-145.69;62.21;52375.06;5114041;28;20284;-80
2024/02/21 04:04:00;;;;;;;10.40;2.17;;;;;;;-145.69;62.52;52371.13;5114377;28;20247;-80
2024/02/21 04:06:28;;;;;;;8.20;2.03;;;;;;;-145.69;61.99;52357.25;5114413;28;20230;-80
2024/02/21 04:08:55;;;;;;;6.93;2.37;;;;;;;-145.69;61.88;52361.22;5114341;28;20205;-80
2024/02/21 04:11:22;;;;;;;6.90;2.00;;;;;;;-145.69;62.09;52337.44;5114229;28;20266;-80
2024/02/21 04:13:50;;;;;;;7.50;1.70;;;;;;;-145.69;62.51;52361.22;5113996;28;20652;-80
2024/02/21 04:16:16;;;;;;;9.97;2.07;;;;;;;-145.69;62.69;52361.22;5114149;28;20297;-81
2024/02/21 04:18:43;;;;;;;7.80;2.00;;;;;;;-145.69;62.77;52369.13;5114271;28;20205;-79
2024/02/21 04:21:10;;;;;;;3.33;1.63;;;;;;;-145.69;63.03;52371.13;5114066;28;20292;-78
2024/02/21 04:23:38;;;;;;;11.67;2.20;;;;;;;-145.69;63.86;52377.06;5113931;28;20205;-79
2024/02/21 04:26:04;;;;;;;7.10;1.83;;;;;;;-145.69;63.26;52325.56;5093260;28;20198;-79
2024/02/21 04:28:31;;;;;;;4.80;1.80;;;;;;;-145.69;63.76;52341.41;5093911;28;20205;-79
2024/02/21 04:30:57;;;;;;;3.80;1.50;;;;;;;-145.69;63.86;52379.03;5093515;28;20198;-80
2024/02/21 04:33:23;;;;;;;5.17;1.80;;;;;;;-145.69;64.31;52400.81;5113536;28;20197;-78
2024/02/21 04:35:50;;;;;;;4.83;1.77;;;;;;;-145.69;64.39;52363.19;5113769;28;20262;-78
2024/02/21 04:38:16;;;;;;;8.47;2.03;;;;;;;-145.69;63.64;52386.97;5113919;28;20193;-80
2024/02/21 04:40:44;;;;;;;4.93;1.97;;;;;;;-145.69;64.19;52349.31;5113232;28;20683;-80
2024/02/21 04:43:10;;;;;;;5.63;1.53;;;;;;;-145.69;64.30;52398.84;5113518;28;20194;-80
2024/02/21 04:45:37;;;;;;;4.37;1.70;;;;;;;-145.69;64.48;52377.06;5113683;28;20205;-80
2024/02/21 04:48:04;;;;;;;7.77;1.93;;;;;;;-145.69;65.48;52369.13;5112971;28;20197;-79
2024/02/21 04:50:30;;;;;;;6.97;1.97;;;;;;;-145.69;64.68;52381.00;5113152;28;20235;-80
2024/02/21 04:52:57;;;;;;;5.00;1.80;;;;;;;-145.69;65.04;52379.03;5113684;28;20225;-81
2024/02/21 04:55:23;;;;;;;4.63;1.77;;;;;;;-145.69;65.51;52369.13;5113388;28;20729;-80
2024/02/21 04:57:51;;;;;;;8.13;1.70;;;;;;;-145.69;65.54;52381.00;5113503;28;20197;-80
2024/02/21 05:00:18;;;;;;;3.60;1.67;;;;;;;-145.69;65.17;52369.13;5113380;28;20201;-80
2024/02/21 05:02:45;;;;;;;9.40;1.90;;;;;;;-145.69;65.16;52353.28;5113243;28;20209;-81
2024/02/21 05:05:11;;;;;;;7.23;2.40;;;;;;;-145.69;65.81;52367.16;5113131;28;20200;-80
2024/02/21 05:07:38;;;;;;;5.07;1.90;;;;;;;-145.69;65.65;52369.13;5113121;28;20201;-79
2024/02/21 05:10:05;;;;;;;5.33;1.73;;;;;;;-145.69;65.24;52414.69;5113597;28;20194;-80
2024/02/21 05:12:31;;;;;;;9.63;1.80;;;;;;;-145.69;65.48;52394.88;5113162;28;20628;-80
2024/02/21 05:14:59;;;;;;;10.77;2.10;;;;;;;-145.69;65.30;52357.25;5112373;28;20197;-80
2024/02/21 05:17:25;;;;;;;3.87;1.63;;;;;;;-145.69;65.34;52369.13;5112913;28;20526;-80
2024/02/21 05:19:52;;;;;;;10.10;2.30;;;;;;;-145.69;65.88;52381.00;5113208;28;20201;-80
2024/02/21 05:22:18;;;;;;;8.27;2.47;;;;;;;-145.69;65.26;52377.06;5113161;28;20247;-80
2024/02/21 05:24:45;;;;;;;4.57;2.10;;;;;;;-145.69;65.21;52388.94;5113218;28;20201;-80
2024/02/21 05:27:11;;;;;;;8.27;2.13;;;;;;;-145.69;65.18;52400.81;5112494;28;20197;-79
2024/02/21 05:29:37;;;;;;;11.20;2.33;;;;;;;-145.69;64.74;52373.09;5113132;28;20221;-80
2024/02/21 05:32:06;;;;;;;5.87;1.93;;;;;;;-145.69;65.16;52375.06;5112918;28;20225;-80
2024/02/21 05:34:32;;;;;;;5.97;2.30;;;;;;;-145.69;65.61;52373.09;5112398;28;20205;-79
2024/02/21 05:37:00;;;;;;;6.60;2.37;;;;;;;-145.69;65.15;52402.78;5112572;28;20201;-79
2024/02/21 05:39:28;;;;;;;8.77;2.00;;;;;;;-145.69;65.13;52420.63;5114693;28;20251;-80
2024/02/21 05:41:55;;;;;;;12.93;1.87;;;;;;;-145.69;64.72;52335.47;5117355;28;20666;-80
2024/02/21 05:44:22;;;;;;;6.43;1.90;;;;;;;-145.69;65.33;52377.06;5116549;28;20197;-80
2024/02/21 05:46:48;;;;;;;8.53;2.40;;;;;;;-145.69;64.95;52396.84;5116796;28;20221;-80
2024/02/21 05:49:16;;;;;;;7.90;2.20;;;;;;;-145.69;64.91;52388.94;5117199;28;20240;-80
2024/02/21 05:51:43;;;;;;;5.97;2.00;;;;;;;-145.69;64.54;52388.94;5117142;28;20228;-80
2024/02/21 05:54:09;;;;;;;10.63;2.37;;;;;;;-145.69;64.57;52361.22;5117056;28;20205;-80
2024/02/21 05:56:35;;;;;;;11.37;2.53;;;;;;;-145.69;65.06;52377.06;5117123;28;20201;-80
2024/02/21 05:59:02;;;;;;;11.20;2.23;;;;;;;-145.69;64.75;52369.13;5116705;28;20643;-80
2024/02/21 06:01:28;;;;;;;10.30;2.50;;;;;;;-145.69;64.81;52341.41;5116461;28;20205;-80
2024/02/21 06:03:55;;;;;;;13.90;2.97;;;;;;;-145.69;64.19;52357.25;5117195;28;20198;-79
2024/02/21 06:06:23;;;;;;;8.00;1.83;;;;;;;-145.69;64.44;52343.38;5116730;28;20198;-79
2024/02/21 06:08:49;;;;;;;11.37;2.07;;;;;;;-145.69;64.21;52386.97;5116485;28;20208;-79
2024/02/21 06:11:16;;;;;;;3.87;2.00;;;;;;;-145.69;64.48;52355.28;5116769;28;20201;-80
2024/02/21 06:13:42;;;;;;;11.07;2.27;;;;;;;-145.69;64.79;52345.38;5116476;28;20229;-80
2024/02/21 06:16:08;;;;;;;5.93;2.03;;;;;;;-145.69;65.14;52388.94;5116100;28;20205;-80
2024/02/21 06:18:36;;;;;;;10.10;2.20;;;;;;;-145.69;65.52;52351.31;5116305;28;20209;-80
2024/02/21 06:21:03;;;;;;;9.07;2.33;;;;;;;-145.69;65.04;52396.84;5116465;28;20197;-81
2024/02/21 06:23:31;;;;;;;6.53;2.10;;;;;;;-145.69;65.63;52375.06;5116516;28;20205;-80
2024/02/21 06:25:57;;;;;;;13.43;2.67;;;;;;;-145.69;65.31;52386.97;5116171;28;20200;-81
2024/02/21 06:28:23;;;;;;;7.07;2.07;;;;;;;-145.69;65.28;52349.31;5116375;28;20655;-80
2024/02/21 06:30:50;;;;;;;8.23;2.30;;;;;;;-145.69;64.97;52369.13;5116274;28;20220;-80
2024/02/21 06:33:16;;;;;;;7.40;2.30;;;;;;;-145.69;64.87;52349.31;5116293;27;20320;-79
2024/02/21 06:35:46;;;;;;;10.40;2.10;;;;;;;-145.69;66.03;52349.31;5116247;28;20209;-79
2024/02/21 06:38:12;;;;;;;7.60;2.20;;;;;;;-145.69;65.87;52341.41;5116131;28;20197;-79
2024/02/21 06:40:40;;;;;;;5.97;2.10;;;;;;;-145.69;65.91;52384.97;5116277;28;20208;-80
2024/02/21 06:43:07;;;;;;;11.37;2.47;;;;;;;-145.69;65.90;52388.94;5115726;27;20543;-79
2024/02/21 06:45:33;;;;;;;18.30;3.70;;;;;;;-145.69;66.16;52412.69;5115760;28;20200;-79
2024/02/21 06:47:59;;;;;;;10.60;2.40;;;;;;;-145.69;66.18;52357.25;5115964;28;20194;-79
2024/02/21 06:50:26;;;;;;;8.50;2.20;;;;;;;-145.69;66.41;52408.75;5115207;28;20225;-79
2024/02/21 06:52:52;;;;;;;11.33;2.30;;;;;;;-145.69;66.00;52373.09;5115620;28;20236;-80
2024/02/21 06:55:19;;;;;;;7.47;2.10;;;;;;;-145.69;66.28;52357.25;5115408;27;20648;-79
2024/02/21 06:57:48;;;;;;;12.33;2.20;;;;;;;-145.69;66.25;52347.34;5115478;28;20530;-79
2024/02/21 07:00:16;;;;;;;9.23;2.57;;;;;;;-145.69;65.46;52377.06;5115357;28;20197;-80
2024/02/21 07:02:42;;;;;;;9.03;2.67;;;;;;;-145.69;66.04;52359.22;5115751;28;20281;-79
2024/02/21 07:05:09;;;;;;;14.00;2.20;;;;;;;-145.69;66.16;52386.97;5115600;28;20201;-79
2024/02/21 07:07:35;;;;;;;12.50;2.40;;;;;;;-145.69;65.98;52400.81;5115386;28;20652;-78
2024/02/21 07:10:02;;;;;;;11.13;2.03;;;;;;;-145.69;65.68;52341.41;5115866;28;20284;-79
2024/02/21 07:12:28;;;;;;;9.37;2.40;;;;;;;-145.69;65.51;52369.13;5114996;28;20618;-79
2024/02/21 07:14:56;;;;;;;10.67;2.20;;;;;;;-145.69;65.18;52357.25;5115152;28;20193;-81
2024/02/21 07:17:22;;;;;;;8.90;2.60;;;;;;;-145.69;65.12;52373.09;5115568;28;20212;-82
2024/02/21 07:19:49;;;;;;;10.63;2.40;;;;;;;-145.69;65.41;52377.06;5115167;28;20197;-81
2024/02/21 07:22:15;;;;;;;11.03;2.23;;;;;;;-145.69;65.38;52384.97;5115261;28;20232;-81
2024/02/21 07:24:42;;;;;;;6.90;2.47;;;;;;;-145.69;65.50;52386.97;5115301;28;20205;-81
2024/02/21 07:27:08;;;;;;;7.10;2.17;;;;;;;-145.69;64.89;52343.38;5114915;27;20619;-80
2024/02/21 07:29:35;;;;;;;5.00;2.27;;;;;;;-145.69;64.44;52396.84;5114878;28;20201;-80
2024/02/21 07:32:03;;;;;;;4.53;1.67;;;;;;;-145.69;64.94;52355.28;5114802;28;20221;-81
2024/02/21 07:34:30;;;;;;;4.07;1.90;;;;;;;-145.69;63.74;52317.66;5114544;28;20201;-81
2024/02/21 07:36:56;;;;;;;5.63;1.57;;;;;;;-145.69;63.69;52365.16;5114942;28;20205;-81
2024/02/21 07:39:23;;;;;;;7.23;1.90;;;;;;;-145.69;63.29;52357.25;5115222;28;20197;-80
2024/02/21 07:41:50;;;;;;;4.90;1.90;;;;;;;-145.69;62.25;52339.44;5115268;28;20197;-78
2024/02/21 07:44:16;;;;;;;5.07;1.80;;;;;;;-145.69;62.70;52369.13;5114428;28;20660;-80
2024/02/21 07:46:43;;;;;;;3.43;1.53;;;;;;;-145.69;62.44;52343.38;5114824;28;20243;-78
2024/02/21 07:49:10;;;;;;;4.13;1.50;;;;;;;-145.69;61.89;52345.38;5114296;28;20205;-78
2024/02/21 07:51:37;;;;;;;4.70;2.00;;;;;;;-145.69;62.09;52345.38;5114555;27;20205;-78
2024/02/21 07:54:04;;;;;;;6.07;2.20;;;;;;;-145.69;60.94;52373.09;5114384;28;20330;-80
2024/02/21 07:56:31;;;;;;;11.30;1.90;;;;;;;-145.69;60.94;52335.47;5114865;28;20204;-81
2024/02/21 07:58:57;;;;;;;5.97;1.57;;;;;;;-145.69;59.67;52345.38;5114432;28;20190;-79
2024/02/21 08:01:23;;;;;;;7.53;1.97;;;;;;;-145.69;56.00;52367.16;5113010;28;20545;-79
2024/02/21 08:03:50;;;;;;;9.00;1.87;;;;;;;-145.69;59.51;52349.31;5113817;28;20194;-80
2024/02/21 08:06:18;;;;;;;5.07;1.70;;;;;;;-145.69;57.98;52355.28;5114436;28;20736;-81
2024/02/21 08:08:44;;;;;;;6.73;2.03;;;;;;;-145.69;57.77;52335.47;5114159;28;20197;-80
2024/02/21 08:11:10;;;;;;;3.67;1.60;;;;;;;-145.69;58.49;52373.09;5114234;28;20201;-80
2024/02/21 08:13:37;;;;;;;6.37;1.60;;;;;;;-145.69;58.13;52329.53;5114296;28;20221;-79
2024/02/21 08:16:04;;;;;;;8.07;1.87;;;;;;;-145.69;57.60;52309.72;5114107;28;20660;-79
2024/02/21 08:18:30;;;;;;;8.67;1.80;;;;;;;-145.69;55.13;52339.44;5114327;28;20220;-80
2024/02/21 08:20:57;;;;;;;3.23;1.70;;;;;;;-145.69;55.52;52317.66;5114075;28;20208;-80
2024/02/21 08:23:25;;;;;;;3.30;1.40;;;;;;;-145.69;56.08;52329.53;5114556;28;20210;-80
2024/02/21 08:25:51;;;;;;;6.20;1.93;;;;;;;-145.69;55.82;52321.59;5114149;27;20648;-79
2024/02/21 08:28:18;;;;;;;5.47;1.20;;;;;;;-145.69;54.98;52299.81;5113299;28;20197;-80
2024/02/21 08:30:47;;;;;;;8.33;1.77;;;;;;;-145.69;54.95;52301.81;5113761;28;20567;-79
2024/02/21 08:33:14;;;;;;;5.80;1.60;;;;;;;-145.69;54.94;52309.72;5113754;28;20278;-79
2024/02/21 08:35:40;;;;;;;8.47;1.87;;;;;;;-145.69;54.59;52274.06;5113863;28;20208;-79
2024/02/21 08:38:07;;;;;;;4.73;1.23;;;;;;;-145.69;53.51;52303.78;5113742;28;20197;-79
2024/02/21 08:40:35;;;;;;;3.67;1.50;;;;;;;-145.69;53.07;52319.63;5113872;28;20262;-80
2024/02/21 08:43:01;;;;;;;5.70;1.60;;;;;;;-145.69;52.72;52317.66;5113630;28;20647;-80
2024/02/21 08:45:28;;;;;;;2.53;1.30;;;;;;;-145.69;51.60;52299.81;5112970;28;20203;-79
2024/02/21 08:47:54;;;;;;;2.33;1.10;;;;;;;-145.69;51.16;52295.84;5113411;28;20193;-79
2024/02/21 08:50:21;;;;;;;4.13;1.20;;;;;;;-145.69;50.99;52293.88;5113543;28;20225;-81
2024/02/21 08:52:47;;;;;;;4.00;1.37;;;;;;;-145.69;51.01;52266.16;5113430;28;20227;-78
2024/02/21 08:55:14;;;;;;;3.43;1.23;;;;;;;-145.69;50.35;52278.03;5113485;28;20205;-80
2024/02/21 08:57:41;;;;;;;2.43;1.20;;;;;;;-145.69;48.39;52289.91;5113575;28;20216;-79
2024/02/21 09:00:10;;;;;;;4.67;1.40;;;;;;;-145.69;47.99;52280.00;5112696;28;20197;-80
2024/02/21 09:02:38;;;;;;;4.30;1.37;;;;;;;-145.69;46.93;52262.19;5112407;28;20197;-79
2024/02/21 09:05:06;;;;;;;5.40;1.33;;;;;;;-145.69;43.54;52278.03;5103814;28;20529;-80
2024/02/21 09:07:32;;;;;;;3.60;1.37;;;;;;;-145.69;44.61;52272.09;5113149;28;20284;-79
2024/02/21 09:09:59;;;;;;;2.37;1.20;;;;;;;-145.69;44.58;52285.97;5113503;27;20206;-80
2024/02/21 09:12:25;;;;;;;3.65;1.10;;;;;;;-145.69;44.40;52260.22;5113057;28;20228;-80
2024/02/21 09:14:53;;;;;;;7.53;1.63;;;;;;;-145.69;44.19;52266.16;5112780;28;20685;-80
2024/02/21 09:17:20;;;;;;;3.27;1.20;;;;;;;-145.69;43.25;52266.16;5112994;28;20563;-80
2024/02/21 09:19:47;;;;;;;3.43;1.50;;;;;;;-145.69;43.89;52254.28;5112528;28;20193;-80
2024/02/21 09:22:14;;;;;;;4.93;1.52;;;;;;;-145.69;42.14;52278.03;5113128;28;20293;-80
2024/02/21 09:24:40;;;;;;;4.10;1.17;;;;;;;-145.69;42.14;52264.16;5112694;28;20582;-80
2024/02/21 09:27:07;;;;;;;3.67;1.40;;;;;;;-145.69;41.95;52230.50;5110511;28;20208;-78
2024/02/21 09:29:33;;;;;;;2.08;1.10;;;;;;;-145.69;40.96;52262.19;5112541;28;20251;-79
2024/02/21 09:32:02;;;;;;;7.32;1.13;;;;;;;-145.69;41.17;52242.38;5112855;28;20198;-78
2024/02/21 09:34:29;;;;;;;2.63;1.25;;;;;;;-145.69;40.80;52252.28;5112393;28;20380;-77
2024/02/21 09:36:55;;;;;;;2.83;1.25;;;;;;;-145.69;39.83;52282.00;5112778;28;20206;-78
2024/02/21 09:39:22;;;;;;;3.42;1.00;;;;;;;-145.69;39.78;52230.50;5112994;28;20201;-79
2024/02/21 09:41:55;;;;;;;5.15;1.25;;;;;;;-145.69;39.73;52252.28;5113148;28;20205;-80
2024/02/21 09:44:22;;;;;;;1.85;0.95;;;;;;;-145.69;39.29;52246.34;5127274;28;20196;-79
2024/02/21 09:46:56;;;;;;;2.13;0.93;;;;;;;-145.69;38.68;52234.47;5133502;27;20196;-79
2024/02/21 09:49:32;;;;;;;7.32;1.30;;;;;;;-145.69;37.98;52244.38;5133302;27;20228;-79
2024/02/21 09:52:00;;;;;;;2.72;0.90;;;;;;;-145.69;38.60;52270.13;5132717;27;20200;-79
2024/02/21 09:54:29;;;;;;;3.78;1.30;;;;;;;-145.69;37.31;52238.44;5133267;27;20233;-79
2024/02/21 09:56:55;;;;;;;4.47;0.90;;;;;;;-145.69;38.15;52230.50;5132996;27;20532;-79
2024/02/21 09:59:23;;;;;;;2.42;0.93;;;;;;;-145.69;38.34;52236.44;5119540;27;20197;-78
2024/02/21 10:01:50;;;;;;;19.17;5.40;;;;;;;-145.69;39.33;52224.56;5112817;28;20568;-79
2024/02/21 10:04:18;;;;;;;11.00;3.10;;;;;;;-145.69;39.04;52250.31;5112386;28;20193;-80
2024/02/21 10:06:46;;;;;;;4.03;1.27;;;;;;;-145.69;38.67;52238.44;5111267;27;20763;-81
2024/02/21 10:09:21;;;;;;;3.40;1.08;;;;;;;-145.69;38.19;52188.91;5111678;28;20667;-79
2024/02/21 10:11:48;;;;;;;3.40;1.33;;;;;;;-145.69;37.55;52236.44;5112557;28;20297;-79
2024/02/21 10:14:15;;;;;;;4.68;1.70;;;;;;;-145.69;37.83;52242.38;5112408;28;20225;-80
2024/02/21 10:16:42;;;;;;;1.65;1.13;;;;;;;-145.69;37.68;52216.66;5111980;28;20709;-80
2024/02/21 10:19:17;;;;;;;3.33;1.00;;;;;;;-145.69;37.37;52218.63;5112127;28;20204;-79
2024/02/21 10:21:44;;;;;;;2.92;1.50;;;;;;;-145.69;37.80;52226.53;5112436;28;20264;-80
2024/02/21 10:24:13;;;;;;;2.50;1.10;;;;;;;-145.69;37.91;52236.44;5112612;28;20201;-81
2024/02/21 10:26:39;;;;;;;3.80;1.40;;;;;;;-145.69;37.31;52190.91;5116407;28;20674;-81
2024/02/21 10:29:06;;;;;;;2.95;1.17;;;;;;;-145.69;36.89;52186.94;5115447;28;20280;-80
2024/02/21 10:31:33;;;;;;;2.17;1.15;;;;;;;-145.69;36.68;52175.06;5116137;28;20193;-81
2024/02/21 10:34:02;;;;;;;1.80;1.00;;;;;;;-145.69;36.09;52194.88;5115557;28;20224;-80
2024/02/21 10:36:30;;;;;;;2.60;1.10;;;;;;;-145.69;35.89;52206.75;5116298;28;20262;-81
2024/02/21 10:38:57;;;;;;;2.03;1.10;;;;;;;-145.69;37.50;52198.81;5116125;28;20201;-80
2024/02/21 10:41:26;;;;;;;4.78;1.10;;;;;;;-145.69;36.34;52165.16;5115874;28;20658;-80
2024/02/21 10:43:54;;;;;;;3.75;0.95;;;;;;;-145.69;36.16;52182.97;5115959;28;20205;-82
2024/02/21 10:46:22;;;;;;;2.28;0.90;;;;;;;-145.69;35.35;52157.25;5115957;28;20306;-82
2024/02/21 10:49:02;;;;;;;1.88;0.85;;;;;;;-145.69;35.25;52147.34;5114737;28;20205;-81
2024/02/21 10:51:35;;;;;;;2.53;1.30;;;;;;;-145.69;35.65;52169.13;5114487;28;20450;-79
2024/02/21 10:54:23;;;;;;;2.10;1.08;;;;;;;-145.69;35.23;52139.41;5115935;28;20229;-80
2024/02/21 10:56:52;;;;;;;4.90;1.13;;;;;;;-145.69;34.45;52149.31;5116205;28;20655;-80
2024/02/21 10:59:19;;;;;;;3.50;1.00;;;;;;;-145.69;33.21;52159.22;5114791;28;20193;-80
2024/02/21 11:01:45;;;;;;;4.65;1.27;;;;;;;-145.69;33.51;52163.19;5114671;28;20238;-80
2024/02/21 11:04:13;;;;;;;1.73;1.02;;;;;;;-145.69;32.60;52159.22;5114819;28;20200;-81
2024/02/21 11:06:42;;;;;;;1.60;0.73;;;;;;;-145.69;32.06;52161.19;5115546;27;20201;-80
2024/02/21 11:09:10;;;;;;;3.47;1.00;;;;;;;-145.69;33.13;52143.38;5115538;28;20201;-80
2024/02/21 11:11:38;;;;;;;1.75;0.90;;;;;;;-145.69;32.89;52171.09;5115418;28;20208;-80
2024/02/21 11:14:08;;;;;;;0.90;0.70;;;;;;;-145.69;32.38;52161.19;5115269;28;20222;-79
2024/02/21 11:16:39;;;;;;;1.70;0.90;;;;;;;-145.69;32.69;52167.13;5115502;28;20568;-80